createdAt,value
2022-08-25T00:00:10.567Z,24.20
2022-08-25T00:02:37.851Z,24.20
2022-08-25T00:05:05.564Z,24.10
2022-08-25T00:07:33.769Z,24.00
2022-08-25T00:10:00.521Z,23.90
2022-08-25T00:12:27.277Z,24.00
2022-08-25T00:14:55.122Z,23.90
2022-08-25T00:17:22.015Z,23.90
2022-08-25T00:19:48.770Z,23.80
2022-08-25T00:22:15.582Z,23.90
2022-08-25T00:24:42.344Z,23.80
2022-08-25T00:27:12.310Z,23.90
2022-08-25T00:29:39.748Z,23.90
2022-08-25T00:32:06.798Z,23.80
2022-08-25T00:34:36.917Z,23.90
2022-08-25T00:37:07.143Z,23.80
2022-08-25T00:39:33.874Z,23.90
2022-08-25T00:42:00.736Z,23.80
2022-08-25T00:44:32.473Z,23.80
2022-08-25T00:47:01.071Z,23.90
2022-08-25T00:49:35.882Z,23.90
2022-08-25T00:52:20.454Z,23.80
2022-08-25T00:54:55.104Z,23.70
2022-08-25T00:57:34.963Z,23.70
2022-08-25T01:00:05.661Z,23.60
2022-08-25T01:02:32.653Z,23.60
2022-08-25T01:04:59.656Z,23.60
2022-08-25T01:07:26.390Z,23.60
2022-08-25T01:09:53.888Z,23.70
2022-08-25T01:12:21.648Z,23.70
2022-08-25T01:14:50.145Z,23.60
2022-08-25T01:17:17.111Z,23.60
2022-08-25T01:19:44.366Z,23.50
2022-08-25T01:22:12.091Z,23.50
2022-08-25T01:24:50.813Z,23.60
2022-08-25T01:27:17.534Z,23.50
2022-08-25T01:29:44.342Z,23.50
2022-08-25T01:32:14.889Z,23.50
2022-08-25T01:34:44.815Z,23.50
2022-08-25T01:37:14.064Z,23.50
2022-08-25T01:39:42.551Z,23.50
2022-08-25T01:42:18.052Z,23.50
2022-08-25T01:44:46.721Z,23.40
2022-08-25T01:47:14.694Z,23.40
2022-08-25T01:49:41.540Z,23.40
2022-08-25T01:52:36.911Z,23.40
2022-08-25T01:55:04.732Z,23.40
2022-08-25T01:57:31.760Z,23.40
2022-08-25T01:59:59.120Z,23.40
2022-08-25T02:02:26.257Z,23.30
2022-08-25T02:04:53.178Z,23.30
2022-08-25T02:07:20.691Z,23.30
2022-08-25T02:09:47.438Z,23.20
2022-08-25T02:12:15.424Z,23.20
2022-08-25T02:14:42.192Z,23.20
2022-08-25T02:17:09.793Z,23.20
2022-08-25T02:19:36.601Z,23.20
2022-08-25T02:22:04.262Z,23.10
2022-08-25T02:24:31.135Z,23.20
2022-08-25T02:26:58.188Z,23.10
2022-08-25T02:29:25.094Z,23.10
2022-08-25T02:31:51.792Z,23.10
2022-08-25T02:34:19.106Z,23.10
2022-08-25T02:36:45.837Z,23.00
2022-08-25T02:39:13.036Z,23.00
2022-08-25T02:41:40.075Z,23.00
2022-08-25T02:44:07.878Z,23.00
2022-08-25T02:46:35.398Z,22.90
2022-08-25T02:49:02.703Z,22.90
2022-08-25T02:51:30.235Z,22.80
2022-08-25T02:53:59.267Z,22.80
2022-08-25T02:56:26.295Z,22.70
2022-08-25T02:58:53.319Z,22.70
2022-08-25T03:01:21.045Z,22.70
2022-08-25T03:03:52.328Z,22.70
2022-08-25T03:06:23.035Z,22.60
2022-08-25T03:08:50.091Z,22.70
2022-08-25T03:11:17.854Z,22.70
2022-08-25T03:13:44.698Z,22.60
2022-08-25T03:16:12.447Z,22.60
2022-08-25T03:18:42.635Z,22.60
2022-08-25T03:21:11.601Z,22.60
2022-08-25T03:23:40.120Z,22.50
2022-08-25T03:26:26.787Z,22.40
2022-08-25T03:28:55.455Z,22.50
2022-08-25T03:31:23.978Z,22.50
2022-08-25T03:33:50.810Z,22.50
2022-08-25T03:36:17.605Z,22.50
2022-08-25T03:38:44.409Z,22.50
2022-08-25T03:41:17.108Z,22.50
2022-08-25T03:43:44.242Z,22.40
2022-08-25T03:46:20.750Z,22.40
2022-08-25T03:48:48.835Z,22.40
2022-08-25T03:51:25.503Z,22.40
2022-08-25T03:53:52.608Z,22.40
2022-08-25T03:56:20.028Z,22.30
2022-08-25T03:58:47.771Z,22.30
2022-08-25T04:01:15.757Z,22.20
2022-08-25T04:03:45.349Z,22.20
2022-08-25T04:06:12.624Z,22.20
2022-08-25T04:08:39.802Z,22.10
2022-08-25T04:11:20.029Z,22.10
2022-08-25T04:13:47.795Z,22.10
2022-08-25T04:16:21.523Z,22.10
2022-08-25T04:18:49.372Z,22.10
2022-08-25T04:21:17.835Z,22.10
2022-08-25T04:23:46.142Z,22.10
2022-08-25T04:26:15.426Z,22.10
2022-08-25T04:28:42.829Z,22.10
2022-08-25T04:31:11.315Z,22.00
2022-08-25T04:33:39.032Z,21.90
2022-08-25T04:36:11.954Z,22.00
2022-08-25T04:38:40.681Z,22.10
2022-08-25T04:41:09.724Z,22.00
2022-08-25T04:43:37.716Z,21.90
2022-08-25T04:46:11.315Z,21.90
2022-08-25T04:48:39.974Z,21.90
2022-08-25T04:51:08.918Z,22.00
2022-08-25T04:53:36.849Z,21.90
2022-08-25T04:56:08.160Z,21.90
2022-08-25T04:58:35.659Z,21.90
2022-08-25T05:01:15.797Z,21.90
2022-08-25T05:03:43.661Z,21.90
2022-08-25T05:06:15.271Z,21.90
2022-08-25T05:08:42.879Z,21.90
2022-08-25T05:11:14.960Z,21.90
2022-08-25T05:13:43.481Z,21.90
2022-08-25T05:16:13.865Z,22.00
2022-08-25T05:18:40.912Z,22.00
2022-08-25T05:21:13.727Z,21.90
2022-08-25T05:23:41.545Z,21.90
2022-08-25T05:26:13.648Z,21.90
2022-08-25T05:28:42.755Z,21.80
2022-08-25T05:31:12.355Z,21.90
2022-08-25T05:33:40.902Z,22.10
2022-08-25T05:36:10.021Z,22.10
2022-08-25T05:38:37.790Z,22.20
2022-08-25T05:41:07.464Z,22.20
2022-08-25T05:43:35.274Z,22.20
2022-08-25T05:46:02.177Z,22.20
2022-08-25T05:48:28.983Z,22.30
2022-08-25T05:50:58.803Z,22.20
2022-08-25T05:53:26.776Z,22.30
2022-08-25T05:55:55.116Z,22.30
2022-08-25T05:58:23.836Z,22.40
2022-08-25T06:00:51.363Z,22.40
2022-08-25T06:03:18.616Z,22.50
2022-08-25T06:05:45.854Z,22.40
2022-08-25T06:08:12.644Z,22.50
2022-08-25T06:10:39.439Z,22.50
2022-08-25T06:13:06.496Z,22.50
2022-08-25T06:15:33.961Z,22.60
2022-08-25T06:18:03.295Z,22.60
2022-08-25T06:20:31.320Z,22.70
2022-08-25T06:22:58.332Z,22.50
2022-08-25T06:25:26.857Z,22.70
2022-08-25T06:27:54.922Z,22.80
2022-08-25T06:30:24.605Z,22.70
2022-08-25T06:32:56.017Z,22.80
2022-08-25T06:35:23.251Z,22.80
2022-08-25T06:37:50.008Z,22.90
2022-08-25T06:40:17.037Z,23.00
2022-08-25T06:42:48.945Z,23.00
2022-08-25T06:45:16.006Z,23.10
2022-08-25T06:47:43.008Z,23.10
2022-08-25T06:50:12.692Z,23.20
2022-08-25T06:52:40.609Z,23.30
2022-08-25T06:55:07.607Z,23.50
2022-08-25T06:57:35.953Z,23.50
2022-08-25T07:00:06.612Z,23.70
2022-08-25T07:02:35.333Z,23.90
2022-08-25T07:05:02.976Z,24.10
2022-08-25T07:07:42.998Z,24.30
2022-08-25T07:10:11.352Z,24.40
2022-08-25T07:12:38.682Z,24.50
2022-08-25T07:15:21.439Z,24.50
2022-08-25T07:17:49.150Z,24.60
2022-08-25T07:20:17.129Z,24.80
2022-08-25T07:22:48.090Z,24.90
2022-08-25T07:25:14.892Z,25.10
2022-08-25T07:27:44.670Z,25.10
2022-08-25T07:30:11.590Z,25.30
2022-08-25T07:32:43.011Z,25.30
2022-08-25T07:35:15.998Z,25.40
2022-08-25T07:37:49.830Z,25.40
2022-08-25T07:40:23.925Z,25.70
2022-08-25T07:42:52.820Z,25.80
2022-08-25T07:45:21.492Z,25.70
2022-08-25T07:47:48.865Z,25.80
2022-08-25T07:50:18.731Z,25.70
2022-08-25T07:52:50.894Z,25.70
2022-08-25T07:55:22.308Z,25.80
2022-08-25T07:57:53.980Z,25.80
2022-08-25T08:00:23.183Z,25.70
2022-08-25T08:02:51.570Z,25.70
2022-08-25T08:05:18.457Z,25.80
2022-08-25T08:07:45.200Z,26.00
2022-08-25T08:13:03.171Z,26.20
2022-08-25T08:15:30.536Z,26.40
2022-08-25T08:17:58.715Z,26.40
2022-08-25T08:20:26.569Z,26.40
2022-08-25T08:22:53.705Z,26.60
2022-08-25T08:25:23.069Z,26.80
2022-08-25T08:27:55.124Z,27.00
2022-08-25T08:30:25.941Z,27.00
2022-08-25T08:33:09.249Z,27.00
2022-08-25T08:35:36.914Z,27.30
2022-08-25T08:38:04.904Z,27.60
2022-08-25T08:41:08.061Z,27.80
2022-08-25T08:43:35.314Z,27.70
2022-08-25T08:46:04.049Z,28.00
2022-08-25T08:49:03.342Z,28.20
2022-08-25T08:51:49.234Z,28.30
2022-08-25T08:54:23.133Z,28.80
2022-08-25T08:56:55.221Z,28.80
2022-08-25T08:59:30.146Z,29.00
2022-08-25T09:02:02.701Z,29.10
2022-08-25T09:04:41.215Z,29.50
2022-08-25T09:07:17.709Z,29.50
2022-08-25T09:09:47.942Z,29.80
2022-08-25T09:12:45.516Z,29.60
2022-08-25T09:15:55.692Z,30.10
2022-08-25T09:18:51.458Z,31.00
2022-08-25T09:21:49.493Z,30.40
2022-08-25T09:24:43.817Z,31.00
2022-08-25T09:27:33.941Z,30.80
2022-08-25T09:30:05.368Z,31.30
2022-08-25T09:32:38.619Z,31.60
2022-08-25T09:35:14.926Z,31.90
2022-08-25T09:37:41.647Z,31.60
2022-08-25T09:40:09.438Z,31.40
2022-08-25T09:42:58.747Z,30.90
2022-08-25T09:46:02.495Z,30.70
2022-08-25T09:48:42.304Z,31.20
2022-08-25T09:51:42.616Z,31.40
2022-08-25T09:54:12.815Z,31.50
2022-08-25T09:56:52.382Z,31.70
2022-08-25T09:59:35.164Z,31.70
2022-08-25T10:02:21.021Z,31.80
2022-08-25T10:04:47.980Z,31.70
2022-08-25T10:07:25.457Z,31.40
2022-08-25T10:09:59.923Z,31.20
2022-08-25T10:12:36.058Z,31.10
2022-08-25T10:15:29.383Z,30.80
2022-08-25T10:18:17.438Z,30.80
2022-08-25T10:20:44.949Z,30.90
2022-08-25T10:23:14.973Z,30.90
2022-08-25T10:25:57.743Z,30.90
2022-08-25T10:28:37.916Z,30.90
2022-08-25T10:31:10.590Z,30.80
2022-08-25T10:34:05.498Z,31.00
2022-08-25T10:36:32.514Z,31.10
2022-08-25T10:39:01.953Z,31.20
2022-08-25T10:41:34.553Z,31.40
2022-08-25T10:44:07.051Z,31.20
2022-08-25T10:46:56.237Z,31.10
2022-08-25T10:49:45.570Z,31.00
2022-08-25T10:52:21.765Z,31.00
2022-08-25T10:54:59.196Z,31.00
2022-08-25T10:57:32.019Z,31.00
2022-08-25T11:00:14.418Z,31.00
2022-08-25T11:03:13.891Z,30.90
2022-08-25T11:05:43.883Z,30.90
2022-08-25T11:08:18.622Z,30.80
2022-08-25T11:10:56.450Z,30.90
2022-08-25T11:13:33.326Z,30.90
2022-08-25T11:16:18.617Z,30.90
2022-08-25T11:19:09.181Z,30.90
2022-08-25T11:22:04.332Z,31.30
2022-08-25T11:24:48.255Z,32.20
2022-08-25T11:27:24.535Z,32.70
2022-08-25T11:30:08.812Z,32.70
2022-08-25T11:32:39.045Z,32.70
2022-08-25T11:35:13.001Z,33.30
2022-08-25T11:38:04.763Z,33.80
2022-08-25T11:40:50.423Z,33.90
2022-08-25T11:43:27.435Z,34.30
2022-08-25T11:46:20.079Z,34.40
2022-08-25T11:49:21.948Z,34.10
2022-08-25T11:51:50.607Z,34.60
2022-08-25T11:54:35.255Z,34.60
2022-08-25T11:57:07.024Z,35.20
2022-08-25T11:59:52.381Z,34.40
2022-08-25T12:02:36.472Z,34.40
2022-08-25T12:05:05.941Z,35.00
2022-08-25T12:08:14.393Z,34.70
2022-08-25T12:11:07.278Z,34.40
2022-08-25T12:13:47.418Z,34.40
2022-08-25T12:16:31.960Z,34.00
2022-08-25T12:19:28.779Z,34.20
2022-08-25T12:22:03.499Z,34.90
2022-08-25T12:24:47.769Z,34.80
2022-08-25T12:27:46.574Z,34.70
2022-08-25T12:30:26.147Z,35.80
2022-08-25T12:33:10.523Z,35.90
2022-08-25T12:35:48.698Z,37.10
2022-08-25T12:38:19.105Z,37.40
2022-08-25T12:40:45.831Z,37.10
2022-08-25T12:43:37.652Z,36.20
2022-08-25T12:46:23.025Z,37.00
2022-08-25T12:49:00.532Z,36.50
2022-08-25T12:51:48.834Z,35.50
2022-08-25T12:54:24.602Z,35.60
2022-08-25T12:57:01.753Z,36.00
2022-08-25T12:59:42.947Z,36.40
2022-08-25T13:03:00.831Z,35.20
2022-08-25T13:05:46.542Z,35.40
2022-08-25T13:08:22.072Z,36.10
2022-08-25T13:11:17.113Z,35.30
2022-08-25T13:14:08.252Z,36.30
2022-08-25T13:16:37.207Z,37.20
2022-08-25T13:19:06.777Z,36.00
2022-08-25T13:21:38.088Z,36.40
2022-08-25T13:24:27.139Z,37.00
2022-08-25T13:26:57.235Z,38.30
2022-08-25T13:29:34.856Z,37.60
2022-08-25T13:32:14.279Z,38.10
2022-08-25T13:34:43.179Z,36.30
2022-08-25T13:37:29.513Z,36.50
2022-08-25T13:40:17.576Z,36.80
2022-08-25T13:42:52.949Z,37.00
2022-08-25T13:45:41.021Z,35.70
2022-08-25T13:48:21.087Z,35.70
2022-08-25T13:50:51.974Z,35.90
2022-08-25T13:53:23.858Z,36.20
2022-08-25T13:55:58.025Z,36.00
2022-08-25T13:58:39.365Z,36.30
2022-08-25T14:01:22.975Z,35.70
2022-08-25T14:04:24.379Z,35.60
2022-08-25T14:07:20.212Z,35.10
2022-08-25T14:09:47.154Z,36.20
2022-08-25T14:14:59.747Z,36.50
2022-08-25T14:17:38.709Z,37.00
2022-08-25T14:20:17.102Z,35.60
2022-08-25T14:22:43.909Z,34.50
2022-08-25T14:25:11.343Z,34.30
2022-08-25T14:28:03.656Z,34.20
2022-08-25T14:30:30.339Z,35.00
2022-08-25T14:32:58.540Z,35.20
2022-08-25T14:35:25.338Z,35.40
2022-08-25T14:37:52.150Z,34.60
2022-08-25T14:40:20.011Z,33.90
2022-08-25T14:42:47.573Z,33.60
2022-08-25T14:45:18.337Z,33.60
2022-08-25T14:47:49.610Z,33.90
2022-08-25T14:50:20.990Z,34.00
2022-08-25T14:52:48.283Z,34.00
2022-08-25T14:55:21.143Z,33.70
2022-08-25T14:57:59.436Z,33.50
2022-08-25T15:00:26.593Z,33.50
2022-08-25T15:02:55.076Z,33.50
2022-08-25T15:05:27.052Z,33.70
2022-08-25T15:08:14.245Z,33.90
2022-08-25T15:10:42.051Z,33.90
2022-08-25T15:13:10.693Z,33.70
2022-08-25T15:15:52.118Z,33.40
2022-08-25T15:18:21.040Z,33.70
2022-08-25T15:20:50.001Z,33.60
2022-08-25T15:23:20.375Z,33.40
2022-08-25T15:25:52.839Z,33.40
2022-08-25T15:28:22.334Z,33.20
2022-08-25T15:30:49.880Z,33.10
2022-08-25T15:33:17.445Z,33.30
2022-08-25T15:35:45.109Z,33.10
2022-08-25T15:38:12.507Z,33.00
2022-08-25T15:40:39.656Z,32.80
2022-08-25T15:43:06.856Z,32.50
2022-08-25T15:45:35.970Z,32.40
2022-08-25T15:48:04.181Z,32.30
2022-08-25T15:50:34.265Z,32.20
2022-08-25T15:53:01.032Z,32.20
2022-08-25T15:55:27.918Z,32.10
2022-08-25T15:57:55.805Z,32.10
2022-08-25T16:00:22.847Z,32.10
2022-08-25T16:02:50.398Z,31.90
2022-08-25T16:05:17.263Z,31.90
2022-08-25T16:07:46.035Z,31.70
2022-08-25T16:10:18.439Z,31.80
2022-08-25T16:12:45.429Z,31.80
2022-08-25T16:15:12.520Z,31.80
2022-08-25T16:17:40.749Z,31.90
2022-08-25T16:20:13.767Z,32.00
2022-08-25T16:22:41.250Z,32.00
2022-08-25T16:25:08.670Z,32.00
2022-08-25T16:27:38.621Z,32.10
2022-08-25T16:30:07.856Z,32.00
2022-08-25T16:32:34.932Z,32.00
2022-08-25T16:35:03.424Z,32.00
2022-08-25T16:37:30.239Z,32.00
2022-08-25T16:39:57.484Z,31.90
2022-08-25T16:42:26.106Z,31.90
2022-08-25T16:44:53.792Z,31.90
2022-08-25T16:47:25.119Z,32.00
2022-08-25T16:49:54.043Z,32.00
2022-08-25T16:52:40.614Z,31.90
2022-08-25T16:55:15.269Z,31.80
2022-08-25T16:57:48.789Z,31.80
2022-08-25T17:00:19.361Z,31.70
2022-08-25T17:02:46.316Z,31.50
2022-08-25T17:05:14.687Z,31.60
2022-08-25T17:07:41.706Z,31.50
2022-08-25T17:10:12.435Z,31.40
2022-08-25T17:12:40.571Z,31.20
2022-08-25T17:15:07.656Z,31.30
2022-08-25T17:17:36.315Z,31.20
2022-08-25T17:20:04.905Z,31.20
2022-08-25T17:22:31.886Z,31.20
2022-08-25T17:24:59.258Z,31.10
2022-08-25T17:27:28.217Z,31.20
2022-08-25T17:29:55.925Z,31.30
2022-08-25T17:32:30.205Z,31.20
2022-08-25T17:34:58.160Z,31.20
2022-08-25T17:37:25.329Z,31.10
2022-08-25T17:39:56.753Z,31.10
2022-08-25T17:42:31.329Z,30.90
2022-08-25T17:44:58.160Z,30.80
2022-08-25T17:47:24.983Z,30.60
2022-08-25T17:49:51.805Z,30.30
2022-08-25T17:52:21.517Z,30.20
2022-08-25T17:54:52.724Z,29.90
2022-08-25T17:57:19.869Z,29.80
2022-08-25T17:59:48.240Z,29.40
2022-08-25T18:02:15.068Z,29.20
2022-08-25T18:04:42.258Z,29.20
2022-08-25T18:07:10.124Z,29.00
2022-08-25T18:09:36.905Z,29.00
2022-08-25T18:12:04.367Z,28.80
2022-08-25T18:14:31.089Z,28.70
2022-08-25T18:16:57.991Z,28.80
2022-08-25T18:19:24.701Z,28.60
2022-08-25T18:21:52.404Z,28.50
2022-08-25T18:24:19.404Z,28.50
2022-08-25T18:26:46.922Z,28.40
2022-08-25T18:29:14.060Z,28.30
2022-08-25T18:31:46.508Z,28.10
2022-08-25T18:34:15.868Z,28.00
2022-08-25T18:36:42.583Z,28.00
2022-08-25T18:39:34.441Z,27.80
2022-08-25T18:42:02.334Z,27.50
2022-08-25T18:44:29.783Z,27.10
2022-08-25T18:46:57.003Z,27.10
2022-08-25T18:49:26.916Z,26.90
2022-08-25T18:51:55.709Z,27.00
2022-08-25T18:54:23.709Z,27.00
2022-08-25T18:56:52.662Z,27.00
2022-08-25T18:59:20.023Z,27.10
2022-08-25T19:01:51.129Z,27.10
2022-08-25T19:04:17.960Z,26.80
2022-08-25T19:06:44.750Z,26.70
2022-08-25T19:09:12.029Z,26.50
2022-08-25T19:11:39.028Z,26.40
2022-08-25T19:14:12.168Z,26.50
2022-08-25T19:16:42.407Z,26.30
2022-08-25T19:19:13.222Z,26.30
2022-08-25T19:21:41.389Z,26.40
2022-08-25T19:24:09.947Z,26.40
2022-08-25T19:26:38.490Z,26.20
2022-08-25T19:29:09.550Z,26.00
2022-08-25T19:31:39.335Z,25.90
2022-08-25T19:34:07.316Z,25.70
2022-08-25T19:36:34.280Z,25.50
2022-08-25T19:39:01.974Z,25.30
2022-08-25T19:41:31.151Z,25.30
2022-08-25T19:43:58.577Z,25.20
2022-08-25T19:46:32.507Z,24.90
2022-08-25T19:49:07.229Z,25.00
2022-08-25T19:51:40.731Z,24.80
2022-08-25T19:54:10.254Z,24.80
2022-08-25T19:56:55.072Z,24.80
2022-08-25T19:59:40.747Z,24.80
2022-08-25T20:02:15.453Z,24.40
2022-08-25T20:04:49.298Z,24.50
2022-08-25T20:07:19.244Z,24.50
2022-08-25T20:09:46.122Z,24.40
2022-08-25T20:14:40.405Z,24.50
2022-08-25T20:17:23.053Z,24.40
2022-08-25T20:19:52.395Z,24.40
2022-08-25T20:22:22.496Z,24.40
2022-08-25T20:24:56.100Z,24.10
2022-08-25T20:27:37.135Z,24.00
2022-08-25T20:30:11.158Z,23.90
2022-08-25T20:32:38.372Z,23.80
2022-08-25T20:35:09.366Z,23.60
2022-08-25T20:37:40.102Z,23.60
2022-08-25T20:40:08.302Z,23.50
2022-08-25T20:42:36.828Z,23.50
2022-08-25T20:45:05.097Z,23.40
2022-08-25T20:47:31.884Z,23.20
2022-08-25T20:50:00.382Z,23.30
2022-08-25T20:52:30.459Z,23.30
2022-08-25T20:54:57.284Z,23.40
2022-08-25T20:57:26.018Z,23.50
2022-08-25T20:59:54.119Z,23.30
2022-08-25T21:02:21.649Z,23.30
2022-08-25T21:04:49.943Z,23.30
2022-08-25T21:07:17.610Z,23.00
2022-08-25T21:09:44.756Z,23.10
2022-08-25T21:12:11.505Z,23.10
2022-08-25T21:14:41.327Z,23.10
2022-08-25T21:17:11.330Z,23.00
2022-08-25T21:19:39.930Z,23.00
2022-08-25T21:22:07.502Z,23.10
2022-08-25T21:24:34.643Z,23.10
2022-08-25T21:27:03.702Z,23.10
2022-08-25T21:29:32.688Z,23.10
2022-08-25T21:31:59.758Z,23.10
2022-08-25T21:34:28.257Z,23.00
2022-08-25T21:36:57.764Z,23.00
2022-08-25T21:39:27.543Z,22.70
2022-08-25T21:41:56.542Z,22.70
2022-08-25T21:44:23.562Z,22.70
2022-08-25T21:46:53.688Z,22.80
2022-08-25T21:49:22.435Z,22.50
2022-08-25T21:51:59.222Z,22.50
2022-08-25T21:54:26.875Z,22.50
2022-08-25T21:56:59.655Z,22.60
2022-08-25T21:59:35.380Z,22.60
2022-08-25T22:02:05.541Z,22.50
2022-08-25T22:04:33.988Z,22.40
2022-08-25T22:07:00.891Z,22.30
2022-08-25T22:09:29.631Z,22.50
2022-08-25T22:11:56.564Z,22.60
2022-08-25T22:14:26.110Z,22.60
2022-08-25T22:16:53.658Z,22.50
2022-08-25T22:19:22.839Z,22.20
2022-08-25T22:21:50.957Z,22.20
2022-08-25T22:24:18.573Z,22.30
2022-08-25T22:26:47.552Z,22.50
2022-08-25T22:29:20.169Z,22.50
2022-08-25T22:31:53.859Z,22.30
2022-08-25T22:34:30.346Z,22.30
2022-08-25T22:36:59.791Z,22.40
2022-08-25T22:39:27.280Z,22.30
2022-08-25T22:41:54.052Z,22.20
2022-08-25T22:44:23.208Z,22.50
2022-08-25T22:46:50.113Z,22.60
2022-08-25T22:49:17.714Z,22.40
2022-08-25T22:51:44.716Z,22.50
2022-08-25T22:54:15.081Z,22.40
2022-08-25T22:56:42.559Z,22.20
2022-08-25T22:59:12.097Z,22.30
2022-08-25T23:01:39.642Z,22.30
2022-08-25T23:04:07.317Z,22.20
2022-08-25T23:06:34.590Z,22.30
2022-08-25T23:09:03.365Z,22.30
2022-08-25T23:11:30.494Z,22.40
2022-08-25T23:14:02.316Z,22.40
2022-08-25T23:16:29.661Z,22.10
2022-08-25T23:18:56.487Z,22.30
2022-08-25T23:21:42.526Z,22.20
2022-08-25T23:24:27.496Z,22.20
2022-08-25T23:26:58.720Z,22.30
2022-08-25T23:29:25.746Z,22.10
2022-08-25T23:31:52.677Z,22.10
2022-08-25T23:34:21.525Z,22.10
2022-08-25T23:36:49.006Z,21.90
2022-08-25T23:39:15.806Z,21.80
2022-08-25T23:41:42.729Z,21.80
2022-08-25T23:44:11.764Z,21.90
2022-08-25T23:46:44.593Z,21.90
2022-08-25T23:49:11.581Z,21.90
2022-08-25T23:51:38.638Z,21.80
2022-08-25T23:54:09.215Z,22.00
2022-08-25T23:56:44.710Z,21.90
2022-08-25T23:59:19.020Z,21.80
